Time;durP1;ratioP1;P1;durP2;ratioP2;P2;SDS_P1;SDS_P2;PMS_P1;PMS_P2;Temp;Humidity;BMP_temperature;BMP_pressure;BME280_temperature;BME280_humidity;BME280_pressure;Samples;Min_cycle;Max_cycle;Signal;HPM_P1;HPM_P2
2021/09/13 00:03:51;;;;;;;4.50;4.07;;;18.70;99.90;;;;;;10308794;28;20322;-85
2021/09/13 00:08:54;;;;;;;4.37;4.00;;;18.70;99.90;;;;;;10330458;28;20201;-85
2021/09/13 00:13:57;;;;;;;5.63;4.20;;;18.70;99.90;;;;;;10297028;28;20241;-82
2021/09/13 00:19:00;;;;;;;4.60;4.10;;;18.70;99.90;;;;;;10286944;28;20224;-85
2021/09/13 00:24:04;;;;;;;4.20;4.00;;;18.60;99.90;;;;;;10362491;23;20237;-86
2021/09/13 00:29:12;;;;;;;4.63;4.23;;;18.60;99.90;;;;;;10435226;28;20631;-86
2021/09/13 00:34:14;;;;;;;4.40;3.67;;;18.60;99.90;;;;;;10418278;28;20324;-86
2021/09/13 00:39:17;;;;;;;4.73;4.20;;;18.50;99.90;;;;;;10450605;28;20217;-86
2021/09/13 00:44:23;;;;;;;4.40;4.10;;;18.40;99.90;;;;;;10433409;28;20607;-86
2021/09/13 00:49:26;;;;;;;4.27;3.97;;;18.40;99.90;;;;;;10449269;28;20224;-86
2021/09/13 00:54:28;;;;;;;3.90;3.70;;;18.40;99.90;;;;;;10433561;28;20680;-86
2021/09/13 00:59:33;;;;;;;4.00;3.70;;;18.40;99.90;;;;;;10454419;28;20249;-86
2021/09/13 01:04:35;;;;;;;4.10;3.90;;;18.40;99.90;;;;;;10445639;28;20340;-87
2021/09/13 01:09:37;;;;;;;4.30;4.00;;;18.40;99.90;;;;;;10433932;28;20201;-87
2021/09/13 01:14:42;;;;;;;4.20;3.87;;;18.40;99.90;;;;;;10434301;28;20280;-86
2021/09/13 01:19:45;;;;;;;4.23;3.93;;;18.30;99.90;;;;;;10444696;28;20233;-86
2021/09/13 01:24:49;;;;;;;4.17;3.97;;;18.20;99.90;;;;;;10448841;28;20233;-86
2021/09/13 01:29:52;;;;;;;4.73;4.43;;;18.20;99.90;;;;;;10432484;28;20205;-86
2021/09/13 01:34:54;;;;;;;4.83;4.60;;;18.20;99.90;;;;;;10433035;28;20229;-87
2021/09/13 01:40:01;;;;;;;5.33;4.63;;;18.10;99.90;;;;;;10438602;28;20229;-86
2021/09/13 01:45:03;;;;;;;4.60;4.30;;;18.10;99.90;;;;;;10454897;28;20225;-86
2021/09/13 01:50:10;;;;;;;5.43;4.93;;;18.10;99.90;;;;;;10450316;28;20563;-86
2021/09/13 01:55:14;;;;;;;6.67;4.30;;;18.00;99.90;;;;;;10447549;28;20601;-86
2021/09/13 02:00:17;;;;;;;4.40;4.10;;;18.00;99.90;;;;;;10432458;28;20322;-86
2021/09/13 02:05:23;;;;;;;4.23;4.03;;;17.90;99.90;;;;;;10453090;28;20225;-86
2021/09/13 02:10:31;;;;;;;4.80;4.40;;;17.90;99.90;;;;;;10437238;28;20220;-86
2021/09/13 02:15:34;;;;;;;4.73;4.33;;;17.80;99.90;;;;;;10453636;28;20225;-86
2021/09/13 02:20:36;;;;;;;4.43;4.13;;;17.80;99.90;;;;;;10436820;28;20241;-85
2021/09/13 02:25:40;;;;;;;5.10;4.67;;;17.80;99.90;;;;;;10431306;28;20267;-85
2021/09/13 02:30:44;;;;;;;4.63;4.33;;;17.70;99.90;;;;;;10437037;28;20680;-86
2021/09/13 02:35:48;;;;;;;4.67;4.27;;;17.70;99.90;;;;;;10433570;28;20232;-85
2021/09/13 02:40:52;;;;;;;5.00;4.70;;;17.70;99.90;;;;;;10435561;28;20229;-85
2021/09/13 02:45:55;;;;;;;5.60;4.97;;;17.70;99.90;;;;;;10453402;28;20221;-85
2021/09/13 02:50:57;;;;;;;4.97;4.67;;;17.60;99.90;;;;;;10452810;28;20688;-85
2021/09/13 02:56:04;;;;;;;4.87;4.47;;;17.60;99.90;;;;;;10436825;28;20229;-86
2021/09/13 03:01:11;;;;;;;5.00;4.70;;;17.50;99.90;;;;;;10436453;28;20684;-85
2021/09/13 03:06:15;;;;;;;5.03;4.70;;;17.50;99.90;;;;;;10452859;28;20267;-86
2021/09/13 03:11:19;;;;;;;4.43;4.23;;;17.50;99.90;;;;;;10436596;28;20219;-86
2021/09/13 03:16:21;;;;;;;4.90;4.50;;;17.50;99.90;;;;;;10436078;28;20233;-85
2021/09/13 03:21:24;;;;;;;5.77;5.23;;;17.50;99.90;;;;;;10452947;28;20279;-85
2021/09/13 03:26:28;;;;;;;4.90;4.60;;;17.50;99.90;;;;;;10452340;28;20237;-85
2021/09/13 03:36:48;;;;;;;5.50;5.20;;;17.60;99.90;;;;;;10436262;28;20220;-85
2021/09/13 03:41:52;;;;;;;5.10;4.70;;;17.70;99.90;;;;;;10436719;28;20225;-85
2021/09/13 03:46:55;;;;;;;6.53;5.13;;;17.60;99.90;;;;;;10435955;28;20696;-85
2021/09/13 03:52:23;;;;;;;5.57;5.17;;;17.70;99.90;;;;;;10435156;28;20193;-85
2021/09/13 03:57:26;;;;;;;5.77;3.87;;;17.70;99.90;;;;;;10433565;28;20580;-85
2021/09/13 04:02:30;;;;;;;5.80;5.30;;;17.70;99.90;;;;;;10430596;28;20205;-85
2021/09/13 04:07:37;;;;;;;4.97;4.67;;;17.60;99.90;;;;;;10435753;28;20216;-86
2021/09/13 04:13:02;;;;;;;4.67;4.37;;;17.60;99.90;;;;;;10442625;28;20260;-85
2021/09/13 04:18:15;;;;;;;4.80;4.50;;;17.60;99.90;;;;;;10428875;28;20267;-85
2021/09/13 04:23:17;;;;;;;5.17;4.87;;;17.50;99.90;;;;;;10461896;28;20649;-85
2021/09/13 04:28:41;;;;;;;4.87;4.57;;;17.50;99.90;;;;;;10440560;28;20237;-85
2021/09/13 04:33:52;;;;;;;5.47;5.10;;;17.40;99.90;;;;;;10439721;28;20291;-84
2021/09/13 04:39:15;;;;;;;5.40;5.00;;;17.40;99.90;;;;;;10448277;28;20225;-85
2021/09/13 04:44:38;;;;;;;6.53;5.20;;;17.40;99.90;;;;;;10459383;28;20220;-85
2021/09/13 04:50:10;;;;;;;6.00;4.83;;;17.40;99.90;;;;;;10405884;28;20205;-85
2021/09/13 04:55:48;;;;;;;4.83;4.53;;;17.30;99.90;;;;;;10424929;28;20249;-85
2021/09/13 05:00:55;;;;;;;5.50;5.00;;;17.30;99.90;;;;;;10439712;28;20232;-86
2021/09/13 05:06:00;;;;;;;5.63;4.63;;;17.20;99.90;;;;;;10441020;28;20230;-86
2021/09/13 05:11:02;;;;;;;5.90;4.47;;;17.30;99.90;;;;;;10456819;28;20204;-85
2021/09/13 05:16:07;;;;;;;5.73;5.23;;;17.20;99.90;;;;;;10447831;28;20260;-85
2021/09/13 05:21:15;;;;;;;5.13;4.70;;;17.20;99.90;;;;;;10456286;28;20296;-85
2021/09/13 05:26:19;;;;;;;5.60;5.20;;;17.20;99.90;;;;;;10453071;28;20267;-86
2021/09/13 05:31:23;;;;;;;5.40;5.10;;;17.20;99.90;;;;;;10456155;28;20636;-85
2021/09/13 05:36:26;;;;;;;6.20;5.70;;;17.30;99.90;;;;;;10438367;28;20312;-85
2021/09/13 05:41:29;;;;;;;5.57;5.17;;;17.30;99.90;;;;;;10452114;28;20235;-86
2021/09/13 05:46:33;;;;;;;5.40;5.00;;;17.40;99.90;;;;;;10438046;28;20236;-86
2021/09/13 05:51:40;;;;;;;5.50;5.10;;;17.50;99.90;;;;;;10438674;28;20212;-86
2021/09/13 05:56:50;;;;;;;5.83;5.40;;;17.60;99.90;;;;;;10455206;28;20764;-86
2021/09/13 06:01:54;;;;;;;5.70;5.20;;;17.60;99.90;;;;;;10437986;28;20328;-86
2021/09/13 06:06:57;;;;;;;5.60;5.30;;;17.70;99.90;;;;;;10438080;28;20244;-86
2021/09/13 06:12:00;;;;;;;5.50;5.10;;;17.80;99.90;;;;;;10453986;28;20216;-85
2021/09/13 06:17:13;;;;;;;6.33;5.87;;;17.90;99.90;;;;;;10438038;28;20229;-86
2021/09/13 06:22:19;;;;;;;6.17;5.67;;;18.00;99.90;;;;;;10437259;28;20761;-86
2021/09/13 06:27:22;;;;;;;6.77;6.17;;;18.00;99.90;;;;;;10438307;28;20327;-84
2021/09/13 06:32:27;;;;;;;6.27;5.67;;;18.00;99.90;;;;;;10436451;28;20240;-84
2021/09/13 06:37:29;;;;;;;7.37;6.87;;;18.00;99.90;;;;;;10431086;28;20236;-84
2021/09/13 06:42:31;;;;;;;6.83;6.33;;;18.10;99.90;;;;;;10433682;28;20278;-84
2021/09/13 06:47:47;;;;;;;7.57;6.97;;;18.10;99.90;;;;;;10452077;28;20224;-84
2021/09/13 06:52:51;;;;;;;7.90;7.20;;;18.20;99.90;;;;;;10450776;28;20217;-84
2021/09/13 06:57:53;;;;;;;8.57;7.77;;;18.20;99.90;;;;;;10451888;28;20232;-84
2021/09/13 07:02:56;;;;;;;8.47;7.77;;;18.30;99.90;;;;;;10452826;28;20271;-84
2021/09/13 07:07:58;;;;;;;8.23;7.63;;;18.40;99.90;;;;;;10436395;28;20292;-84
2021/09/13 07:13:01;;;;;;;9.47;8.60;;;18.50;99.90;;;;;;10454725;28;20249;-84
2021/09/13 07:18:05;;;;;;;9.30;8.50;;;18.60;99.90;;;;;;10455264;28;20216;-84
2021/09/13 07:23:08;;;;;;;7.13;6.47;;;18.70;99.90;;;;;;10437050;28;20264;-84
2021/09/13 07:28:10;;;;;;;9.03;8.23;;;18.80;99.90;;;;;;10454149;28;20201;-84
2021/09/13 07:33:14;;;;;;;9.57;8.87;;;18.80;99.90;;;;;;10436968;28;20240;-84
2021/09/13 07:38:16;;;;;;;10.77;9.77;;;18.90;99.90;;;;;;10437740;28;20216;-84
2021/09/13 07:43:19;;;;;;;9.90;9.10;;;18.90;99.90;;;;;;10454119;28;20225;-84
2021/09/13 07:48:22;;;;;;;8.67;7.97;;;19.00;99.90;;;;;;10437732;28;20204;-84
2021/09/13 07:53:24;;;;;;;9.50;8.70;;;19.00;99.90;;;;;;10458945;28;20231;-84
2021/09/13 07:58:26;;;;;;;9.97;9.07;;;19.10;99.90;;;;;;10455351;28;20236;-84
2021/09/13 08:03:30;;;;;;;8.70;8.00;;;19.20;99.90;;;;;;10455100;28;20224;-84
2021/09/13 08:08:32;;;;;;;8.43;7.63;;;19.30;99.90;;;;;;10460584;28;20695;-84
2021/09/13 08:13:39;;;;;;;7.93;7.23;;;19.30;99.90;;;;;;10443932;28;20706;-85
2021/09/13 08:18:43;;;;;;;10.00;9.00;;;19.40;99.90;;;;;;10437020;28;20225;-85
2021/09/13 08:23:49;;;;;;;8.67;7.80;;;19.50;99.90;;;;;;10442400;28;20283;-85
2021/09/13 08:28:51;;;;;;;7.00;6.40;;;19.60;99.90;;;;;;10441906;28;20217;-84
2021/09/13 08:33:55;;;;;;;7.70;7.00;;;19.60;99.90;;;;;;10433860;28;20237;-85
2021/09/13 08:38:57;;;;;;;7.93;7.23;;;19.70;99.90;;;;;;10459106;28;20780;-85
2021/09/13 08:44:00;;;;;;;7.83;6.63;;;19.70;99.90;;;;;;10441451;28;20233;-85
2021/09/13 08:49:06;;;;;;;7.80;7.20;;;19.80;99.90;;;;;;10456530;28;20212;-84
2021/09/13 08:54:10;;;;;;;7.47;6.73;;;19.90;99.90;;;;;;10441004;28;20593;-84
2021/09/13 08:59:14;;;;;;;6.93;6.43;;;20.00;99.90;;;;;;10457840;28;20217;-84
2021/09/13 09:04:18;;;;;;;6.10;5.60;;;20.00;99.90;;;;;;10438203;28;20233;-85
2021/09/13 09:09:22;;;;;;;5.57;5.13;;;20.10;99.90;;;;;;10457516;28;20205;-84
2021/09/13 09:14:32;;;;;;;5.80;5.40;;;20.10;99.90;;;;;;10455597;28;20318;-85
2021/09/13 09:19:35;;;;;;;5.57;5.17;;;20.10;99.90;;;;;;10457107;28;20223;-84
2021/09/13 09:24:38;;;;;;;7.30;6.00;;;20.20;99.90;;;;;;10440975;28;20237;-85
2021/09/13 09:29:41;;;;;;;5.23;4.77;;;20.30;99.90;;;;;;10440984;28;20205;-85
2021/09/13 09:34:44;;;;;;;6.10;5.50;;;20.30;99.90;;;;;;10457799;28;20275;-84
2021/09/13 09:39:49;;;;;;;7.50;6.90;;;20.50;99.90;;;;;;10442024;28;20724;-86
2021/09/13 09:44:51;;;;;;;6.53;5.70;;;20.60;99.90;;;;;;10441630;28;20237;-85
2021/09/13 09:49:56;;;;;;;5.50;5.10;;;20.80;99.90;;;;;;10433880;28;20232;-87
2021/09/13 09:55:13;;;;;;;5.73;5.23;;;21.20;99.90;;;;;;10455570;28;20648;-86
2021/09/13 10:00:24;;;;;;;4.43;4.13;;;21.60;99.90;;;;;;10436135;28;20235;-86
2021/09/13 10:05:29;;;;;;;5.07;4.60;;;22.00;99.90;;;;;;10463563;28;20312;-86
2021/09/13 10:10:32;;;;;;;5.30;4.90;;;22.10;99.90;;;;;;10435342;28;20209;-86
2021/09/13 10:15:34;;;;;;;5.67;5.10;;;22.00;99.90;;;;;;10438315;28;20253;-86
2021/09/13 10:20:38;;;;;;;5.60;5.20;;;21.90;99.90;;;;;;10432149;28;20247;-86
2021/09/13 10:25:40;;;;;;;5.53;5.13;;;21.80;99.90;;;;;;10429911;28;20264;-86
2021/09/13 10:30:51;;;;;;;4.97;4.50;;;21.70;99.90;;;;;;10460497;28;20199;-86
2021/09/13 10:35:56;;;;;;;5.67;5.27;;;21.60;99.90;;;;;;10437417;28;20225;-86
2021/09/13 10:40:59;;;;;;;5.63;5.23;;;21.60;99.90;;;;;;10453593;28;20248;-86
2021/09/13 10:46:01;;;;;;;5.60;5.20;;;21.60;99.90;;;;;;10434494;28;20236;-86
2021/09/13 10:51:10;;;;;;;6.60;6.10;;;21.60;99.90;;;;;;10453497;28;20560;-86
2021/09/13 10:56:23;;;;;;;6.67;6.17;;;21.60;99.90;;;;;;10436413;28;20316;-86
2021/09/13 11:01:30;;;;;;;6.23;4.87;;;21.50;99.90;;;;;;10436025;28;20231;-86
2021/09/13 11:06:43;;;;;;;6.53;5.30;;;21.50;99.90;;;;;;10448580;28;20320;-86
2021/09/13 11:11:49;;;;;;;5.80;5.40;;;21.70;99.90;;;;;;10434240;28;20209;-86
2021/09/13 11:16:53;;;;;;;5.23;4.83;;;21.80;99.90;;;;;;10431065;28;20579;-86
2021/09/13 11:21:59;;;;;;;5.00;4.60;;;21.80;99.90;;;;;;10452197;28;20267;-86
2021/09/13 11:27:04;;;;;;;5.50;5.20;;;21.90;99.90;;;;;;10446346;28;20229;-86
2021/09/13 11:32:09;;;;;;;5.07;4.77;;;21.90;99.90;;;;;;10453238;28;20193;-86
2021/09/13 11:37:17;;;;;;;5.40;4.93;;;21.90;99.90;;;;;;10434907;28;20229;-86
2021/09/13 11:42:25;;;;;;;4.70;4.40;;;21.90;99.90;;;;;;10445004;28;20587;-86
2021/09/13 11:47:29;;;;;;;5.67;5.27;;;21.90;99.90;;;;;;10432231;28;20209;-85
2021/09/13 11:52:34;;;;;;;5.63;5.23;;;22.00;99.90;;;;;;10451024;28;20211;-86
2021/09/13 11:57:40;;;;;;;4.50;4.20;;;22.10;99.90;;;;;;10434728;28;20296;-87
2021/09/13 12:02:44;;;;;;;5.00;4.70;;;22.40;99.90;;;;;;10444522;28;20308;-83
2021/09/13 12:07:50;;;;;;;5.20;4.80;;;22.60;99.90;;;;;;10428464;28;20320;-83
2021/09/13 12:12:54;;;;;;;5.10;4.80;;;22.60;99.90;;;;;;10434405;28;20256;-83
2021/09/13 12:17:56;;;;;;;5.00;4.70;;;22.70;99.90;;;;;;10431352;28;20217;-83
2021/09/13 12:23:02;;;;;;;5.13;4.73;;;22.70;99.90;;;;;;10451689;28;20693;-85
2021/09/13 12:28:05;;;;;;;4.60;4.20;;;22.80;99.90;;;;;;10453653;28;20229;-85
2021/09/13 12:33:09;;;;;;;5.17;4.73;;;22.90;99.90;;;;;;10452308;28;20228;-83
2021/09/13 12:38:15;;;;;;;4.83;4.53;;;23.00;99.90;;;;;;10454051;28;20280;-82
2021/09/13 12:43:18;;;;;;;4.40;4.00;;;23.10;99.90;;;;;;10452625;28;20264;-84
2021/09/13 12:48:27;;;;;;;4.77;4.50;;;23.00;99.90;;;;;;10450369;28;20235;-84
2021/09/13 12:53:30;;;;;;;5.33;5.03;;;23.00;99.90;;;;;;10461998;28;20217;-84
2021/09/13 12:58:34;;;;;;;5.93;5.43;;;23.00;99.90;;;;;;10437858;28;20308;-85
2021/09/13 13:03:36;;;;;;;5.87;5.47;;;22.90;99.90;;;;;;10443705;28;20269;-84
2021/09/13 13:08:40;;;;;;;5.30;4.97;;;22.90;99.90;;;;;;10442336;28;20209;-85
2021/09/13 13:13:42;;;;;;;6.80;5.10;;;22.80;99.90;;;;;;10460177;28;20232;-85
2021/09/13 13:18:44;;;;;;;6.70;6.20;;;22.80;99.90;;;;;;10457972;28;20252;-85
2021/09/13 13:23:48;;;;;;;7.03;6.47;;;22.70;99.90;;;;;;10440743;28;20240;-84
2021/09/13 13:28:50;;;;;;;6.00;5.53;;;22.60;99.90;;;;;;10433622;28;20300;-82
2021/09/13 13:33:52;;;;;;;5.27;4.93;;;22.50;99.90;;;;;;10459384;28;20221;-82
2021/09/13 13:38:56;;;;;;;5.27;4.93;;;22.40;99.90;;;;;;10441104;28;20213;-82
2021/09/13 13:43:58;;;;;;;5.73;5.43;;;22.40;99.90;;;;;;10440023;28;20240;-82
2021/09/13 13:49:00;;;;;;;4.90;4.60;;;22.30;99.90;;;;;;10457854;28;20216;-82
2021/09/13 13:54:03;;;;;;;5.53;5.13;;;22.40;99.90;;;;;;10457638;28;20692;-82
2021/09/13 13:59:05;;;;;;;5.30;4.90;;;22.50;99.90;;;;;;10457942;28;20612;-82
2021/09/13 14:04:08;;;;;;;5.13;4.73;;;22.50;99.90;;;;;;10471522;28;20256;-82
2021/09/13 14:09:11;;;;;;;5.27;4.97;;;22.60;99.90;;;;;;10453574;28;20590;-82
2021/09/13 14:14:14;;;;;;;5.30;4.83;;;22.60;99.90;;;;;;10438400;28;20254;-82
2021/09/13 14:19:16;;;;;;;3.73;3.50;;;22.50;99.90;;;;;;10458520;28;20205;-82
2021/09/13 14:24:31;;;;;;;4.53;4.23;;;22.50;99.90;;;;;;10438112;28;20239;-82
2021/09/13 14:29:33;;;;;;;5.60;5.20;;;22.60;99.90;;;;;;10437790;28;20215;-82
2021/09/13 14:34:35;;;;;;;5.90;5.50;;;22.50;99.90;;;;;;10437664;28;20325;-82
2021/09/13 14:39:40;;;;;;;4.50;4.30;;;22.50;99.90;;;;;;10437596;28;20296;-82
2021/09/13 14:44:42;;;;;;;4.90;4.60;;;22.40;99.90;;;;;;10448828;28;20287;-82
2021/09/13 14:49:44;;;;;;;11.90;5.60;;;22.40;99.90;;;;;;10453248;28;20296;-82
2021/09/13 14:54:48;;;;;;;5.43;5.03;;;22.50;99.90;;;;;;10452645;28;20232;-82
2021/09/13 14:59:50;;;;;;;4.97;4.60;;;22.40;99.90;;;;;;10434599;28;20221;-82
2021/09/13 15:04:52;;;;;;;4.07;3.87;;;22.30;99.90;;;;;;10452846;28;20217;-82
2021/09/13 15:09:55;;;;;;;4.40;4.00;;;22.30;99.90;;;;;;10435147;28;20273;-82
2021/09/13 15:14:58;;;;;;;5.73;4.70;;;22.20;99.90;;;;;;10453013;28;20217;-82
2021/09/13 15:20:00;;;;;;;4.70;4.40;;;22.20;99.90;;;;;;10435211;28;20639;-82
2021/09/13 15:25:04;;;;;;;4.63;4.33;;;22.20;99.90;;;;;;10454421;28;20229;-82
2021/09/13 15:30:08;;;;;;;5.10;4.60;;;22.20;99.90;;;;;;10436761;28;20209;-82
2021/09/13 15:35:10;;;;;;;4.40;4.10;;;22.30;99.90;;;;;;10459587;28;20272;-82
2021/09/13 15:40:15;;;;;;;4.80;4.50;;;22.40;99.90;;;;;;10460252;28;20224;-85
2021/09/13 15:45:18;;;;;;;4.77;4.47;;;22.40;99.90;;;;;;10434967;28;20324;-84
2021/09/13 15:50:20;;;;;;;4.97;4.67;;;22.40;99.90;;;;;;10429042;28;20212;-84
2021/09/13 15:55:24;;;;;;;4.30;4.07;;;22.30;99.90;;;;;;10434247;28;20235;-84
2021/09/13 16:00:27;;;;;;;4.53;4.23;;;22.30;99.90;;;;;;10468154;28;20213;-85
2021/09/13 16:05:31;;;;;;;4.53;4.17;;;22.40;99.90;;;;;;10452063;28;20248;-84
2021/09/13 16:10:35;;;;;;;5.00;4.60;;;22.40;99.90;;;;;;10442179;28;20205;-82
2021/09/13 16:15:37;;;;;;;4.33;4.10;;;22.50;99.90;;;;;;10451099;28;20719;-82
2021/09/13 16:20:40;;;;;;;4.27;4.00;;;22.50;99.90;;;;;;10436257;28;20221;-82
2021/09/13 16:25:48;;;;;;;4.23;3.93;;;22.60;99.90;;;;;;10445029;28;20240;-82
2021/09/13 16:30:51;;;;;;;4.23;4.03;;;22.60;99.90;;;;;;10415982;28;20209;-82
2021/09/13 16:35:54;;;;;;;4.50;4.20;;;22.50;99.90;;;;;;10423465;28;20848;-82
2021/09/13 16:40:58;;;;;;;4.97;4.57;;;22.50;99.90;;;;;;10427811;28;20245;-82
2021/09/13 16:46:00;;;;;;;4.90;4.50;;;22.50;99.90;;;;;;10425485;28;20225;-82
2021/09/13 16:51:04;;;;;;;5.83;5.33;;;22.40;99.90;;;;;;10461843;28;20287;-82
2021/09/13 16:56:08;;;;;;;5.57;5.17;;;22.40;99.90;;;;;;10437128;28;20705;-82
2021/09/13 17:01:11;;;;;;;6.30;5.00;;;22.30;99.90;;;;;;10459091;28;20217;-82
2021/09/13 17:06:16;;;;;;;5.83;5.17;;;22.20;99.90;;;;;;10460627;28;20591;-84
2021/09/13 17:11:21;;;;;;;5.70;5.30;;;22.00;99.90;;;;;;10441895;28;20215;-84
2021/09/13 17:16:24;;;;;;;6.00;4.80;;;22.00;99.90;;;;;;10441456;28;20763;-84
2021/09/13 17:21:27;;;;;;;4.80;4.50;;;21.90;99.90;;;;;;10440034;28;20228;-84
2021/09/13 17:26:32;;;;;;;4.07;3.77;;;21.80;99.90;;;;;;10417189;28;20747;-84
2021/09/13 17:31:34;;;;;;;5.20;4.90;;;21.70;99.90;;;;;;10439470;28;20216;-84
2021/09/13 17:36:36;;;;;;;6.57;6.17;;;21.60;99.90;;;;;;10443433;28;20324;-84
2021/09/13 17:41:40;;;;;;;5.20;4.80;;;21.60;99.90;;;;;;10432065;28;20231;-84
2021/09/13 17:46:42;;;;;;;5.87;5.07;;;21.50;99.90;;;;;;10427860;28;20229;-84
2021/09/13 17:51:47;;;;;;;5.50;5.00;;;21.40;99.90;;;;;;10455544;28;20300;-84
2021/09/13 17:56:52;;;;;;;5.37;4.97;;;21.40;99.90;;;;;;10454404;28;20225;-84
2021/09/13 18:01:54;;;;;;;5.40;5.00;;;21.30;99.90;;;;;;10438280;28;20859;-84
2021/09/13 18:06:58;;;;;;;5.00;4.60;;;21.20;99.90;;;;;;10454212;28;20232;-84
2021/09/13 18:12:02;;;;;;;5.70;5.30;;;21.20;99.90;;;;;;10438951;28;20200;-84
2021/09/13 18:17:04;;;;;;;8.30;5.20;;;21.10;99.90;;;;;;10430609;28;20225;-84
2021/09/13 18:22:06;;;;;;;6.07;5.57;;;21.00;99.90;;;;;;10424263;28;20731;-84
2021/09/13 18:27:12;;;;;;;5.97;5.47;;;21.00;99.90;;;;;;10256199;23;20241;-85
2021/09/13 18:32:40;;;;;;;9.13;5.50;;;20.90;99.90;;;;;;10190676;29;20264;-85
2021/09/13 19:03:09;;;;;;;5.53;5.00;;;20.70;99.90;;;;;;10329421;28;20242;-84
2021/09/13 19:08:55;;;;;;;6.13;5.00;;;20.60;99.90;;;;;;10191894;28;20210;-84
2021/09/13 19:14:18;;;;;;;6.10;5.57;;;20.70;99.90;;;;;;10177020;28;20230;-84
2021/09/13 19:19:27;;;;;;;6.90;6.20;;;20.60;99.90;;;;;;10196073;28;20209;-84
2021/09/13 19:37:02;;;;;;;6.00;5.60;;;20.40;99.90;;;;;;10170738;28;20229;-85
2021/09/13 19:42:45;;;;;;;6.90;6.30;;;20.40;99.90;;;;;;10191036;29;20230;-84
2021/09/13 19:54:52;;;;;;;6.87;6.27;;;20.30;99.90;;;;;;10285480;28;20279;-84
2021/09/13 19:59:58;;;;;;;5.50;5.10;;;20.20;99.90;;;;;;10285977;28;20615;-84
2021/09/13 20:05:07;;;;;;;11.17;6.10;;;20.10;99.90;;;;;;10260794;28;20679;-84
2021/09/13 20:23:29;;;;;;;6.03;5.60;;;20.10;99.90;;;;;;10174091;29;20607;-84
2021/09/13 20:49:37;;;;;;;6.60;6.03;;;19.90;99.90;;;;;;10193109;28;20190;-84
2021/09/13 20:54:49;;;;;;;6.90;6.30;;;19.90;99.90;;;;;;10197590;28;20222;-85
2021/09/13 20:59:54;;;;;;;6.60;6.10;;;19.90;99.90;;;;;;10183836;28;20698;-85
2021/09/13 21:11:08;;;;;;;6.83;6.33;;;19.80;99.90;;;;;;10210048;29;20204;-85
2021/09/13 21:16:11;;;;;;;6.87;6.33;;;19.80;99.90;;;;;;10175281;29;20230;-85
2021/09/13 21:21:14;;;;;;;7.23;6.63;;;19.70;99.90;;;;;;10164940;28;20276;-85
2021/09/13 21:26:17;;;;;;;7.17;6.67;;;19.70;99.90;;;;;;10182697;29;20242;-85
2021/09/13 21:31:20;;;;;;;7.57;6.87;;;19.70;99.90;;;;;;10247284;28;20212;-85
2021/09/13 21:36:22;;;;;;;7.17;6.67;;;19.60;99.90;;;;;;10184413;28;20236;-85
2021/09/13 21:41:26;;;;;;;7.10;6.40;;;19.60;99.90;;;;;;10183974;29;20257;-85
2021/09/13 21:46:28;;;;;;;8.07;7.40;;;19.60;99.90;;;;;;10169473;29;20260;-85
2021/09/13 21:51:30;;;;;;;7.83;7.27;;;19.60;99.90;;;;;;10178032;29;20233;-84
2021/09/13 21:56:34;;;;;;;7.00;6.47;;;19.60;99.90;;;;;;10179064;28;20234;-86
2021/09/13 22:01:36;;;;;;;6.57;6.10;;;19.60;99.90;;;;;;10169877;28;20292;-85
2021/09/13 22:06:38;;;;;;;7.33;6.90;;;19.60;99.90;;;;;;10183955;29;20238;-85
2021/09/13 22:11:42;;;;;;;8.23;7.60;;;19.50;99.90;;;;;;10171897;29;20256;-84
2021/09/13 22:16:44;;;;;;;7.10;6.60;;;19.50;99.90;;;;;;10153361;29;20293;-86
2021/09/13 22:21:46;;;;;;;7.30;6.70;;;19.50;99.90;;;;;;10144713;28;20668;-84
2021/09/13 22:26:50;;;;;;;7.53;6.83;;;19.50;99.90;;;;;;10183128;29;20237;-85
2021/09/13 22:31:52;;;;;;;6.93;6.40;;;19.50;99.90;;;;;;10170528;29;20728;-85
2021/09/13 22:36:54;;;;;;;7.43;6.77;;;19.50;99.90;;;;;;10170089;29;20258;-84
2021/09/13 22:41:58;;;;;;;7.57;6.97;;;19.40;99.90;;;;;;10172404;29;20815;-84
2021/09/13 22:47:00;;;;;;;7.27;6.77;;;19.40;99.90;;;;;;10189808;29;20267;-84
2021/09/13 22:52:02;;;;;;;7.93;6.73;;;19.30;99.90;;;;;;10182809;29;20237;-84
2021/09/13 22:57:06;;;;;;;7.93;7.30;;;19.30;99.90;;;;;;10168379;29;20234;-84
2021/09/13 23:02:08;;;;;;;8.07;7.47;;;19.30;99.90;;;;;;10165484;28;20237;-84
2021/09/13 23:07:11;;;;;;;7.30;6.70;;;19.30;99.90;;;;;;10169894;29;20658;-85
2021/09/13 23:12:15;;;;;;;7.00;6.40;;;19.30;99.90;;;;;;10181567;29;20206;-84
2021/09/13 23:17:18;;;;;;;7.27;6.73;;;19.30;99.90;;;;;;10184980;29;20238;-85
2021/09/13 23:22:20;;;;;;;7.70;6.90;;;19.30;99.90;;;;;;10214340;28;20218;-84
2021/09/13 23:27:24;;;;;;;7.30;6.70;;;19.30;99.90;;;;;;10288792;28;20231;-86
2021/09/13 23:32:28;;;;;;;7.63;7.03;;;19.30;99.90;;;;;;10218955;28;20293;-85
2021/09/13 23:37:31;;;;;;;7.40;6.90;;;19.20;99.90;;;;;;10191326;28;20234;-85
2021/09/13 23:42:34;;;;;;;8.20;7.53;;;19.20;99.90;;;;;;10206659;28;20233;-86
2021/09/13 23:47:37;;;;;;;6.90;6.40;;;19.20;99.90;;;;;;10160609;29;20296;-85
2021/09/13 23:52:42;;;;;;;7.57;6.87;;;19.20;99.90;;;;;;10167434;28;20214;-85
2021/09/13 23:57:46;;;;;;;7.10;6.60;;;19.20;99.90;;;;;;10176866;29;20241;-86
